createdAt,value
2023-06-11T00:02:25.781Z,85.50
2023-06-11T00:07:29.434Z,85.46
2023-06-11T00:12:33.938Z,86.33
2023-06-11T00:17:39.824Z,86.90
2023-06-11T00:22:44.424Z,87.66
2023-06-11T00:27:47.261Z,88.44
2023-06-11T00:32:51.918Z,87.91
2023-06-11T00:37:56.174Z,88.36
2023-06-11T00:42:59.042Z,89.44
2023-06-11T00:48:03.438Z,92.30
2023-06-11T00:53:06.434Z,93.17
2023-06-11T00:58:17.592Z,93.09
2023-06-11T01:03:28.182Z,93.38
2023-06-11T01:08:34.223Z,95.22
2023-06-11T01:13:38.589Z,95.17
2023-06-11T01:18:50.056Z,95.65
2023-06-11T01:24:01.462Z,95.19
2023-06-11T01:29:10.452Z,94.46
2023-06-11T01:34:15.470Z,94.45
2023-06-11T01:39:20.204Z,93.25
2023-06-11T01:44:40.755Z,94.22
2023-06-11T01:49:43.967Z,94.55
2023-06-11T01:54:46.773Z,94.48
2023-06-11T01:59:51.529Z,95.27
2023-06-11T02:04:54.319Z,94.90
2023-06-11T02:09:57.092Z,94.83
2023-06-11T02:15:01.245Z,95.43
2023-06-11T02:20:07.077Z,96.20
2023-06-11T02:25:12.819Z,97.37
2023-06-11T02:30:17.936Z,96.75
2023-06-11T02:35:20.721Z,97.83
2023-06-11T02:40:24.269Z,96.25
2023-06-11T02:45:28.428Z,98.37
2023-06-11T02:50:31.233Z,99.56
2023-06-11T02:55:58.305Z,99.15
2023-06-11T03:01:02.651Z,100.00
2023-06-11T03:06:05.562Z,99.51
2023-06-11T03:11:09.162Z,97.33
2023-06-11T03:16:16.761Z,98.97
2023-06-11T03:21:19.869Z,98.29
2023-06-11T03:26:22.691Z,96.52
2023-06-11T03:31:28.209Z,96.67
2023-06-11T03:36:31.850Z,97.71
2023-06-11T03:41:38.498Z,98.20
2023-06-11T03:46:43.573Z,98.00
2023-06-11T03:51:49.706Z,98.34
2023-06-11T03:56:52.715Z,98.81
2023-06-11T04:01:57.026Z,98.97
2023-06-11T04:07:03.125Z,99.25
2023-06-11T04:12:11.009Z,97.90
2023-06-11T04:17:36.150Z,98.61
2023-06-11T04:23:00.383Z,98.53
2023-06-11T04:28:24.287Z,97.40
2023-06-11T04:33:48.966Z,97.08
2023-06-11T04:39:12.026Z,96.52
2023-06-11T04:44:37.586Z,96.23
2023-06-11T04:50:04.370Z,96.03
2023-06-11T04:55:28.158Z,95.49
2023-06-11T05:00:38.916Z,96.11
2023-06-11T05:05:43.693Z,96.06
2023-06-11T05:10:49.077Z,95.66
2023-06-11T05:15:59.033Z,95.69
2023-06-11T05:21:33.261Z,94.97
2023-06-11T05:26:46.950Z,94.57
2023-06-11T05:31:50.313Z,94.29
2023-06-11T05:36:54.985Z,93.47
2023-06-11T05:42:00.298Z,93.16
2023-06-11T05:47:10.128Z,92.60
2023-06-11T05:52:22.432Z,92.75
2023-06-11T05:57:28.666Z,91.00
2023-06-11T06:02:36.248Z,91.00
2023-06-11T06:07:40.653Z,90.82
2023-06-11T06:12:43.505Z,90.26
2023-06-11T06:17:48.083Z,88.44
2023-06-11T06:22:59.396Z,87.10
2023-06-11T06:28:02.684Z,85.36
2023-06-11T06:33:06.583Z,84.71
2023-06-11T06:38:11.319Z,83.17
2023-06-11T06:43:16.230Z,80.50
2023-06-11T06:48:20.611Z,80.31
2023-06-11T06:53:24.908Z,81.38
2023-06-11T06:58:28.117Z,80.15
2023-06-11T07:03:31.275Z,79.37
2023-06-11T07:08:36.374Z,78.32
2023-06-11T07:13:39.679Z,77.83
2023-06-11T07:18:43.658Z,76.87
2023-06-11T07:23:47.814Z,77.03
2023-06-11T07:28:51.650Z,77.48
2023-06-11T07:33:55.195Z,77.00
2023-06-11T07:39:02.199Z,76.19
2023-06-11T07:44:05.342Z,75.68
2023-06-11T07:49:09.637Z,74.36
2023-06-11T07:54:15.564Z,74.13
2023-06-11T07:59:18.759Z,72.69
2023-06-11T08:04:21.876Z,72.28
2023-06-11T08:09:28.329Z,72.23
2023-06-11T08:14:34.228Z,73.45
2023-06-11T08:19:37.056Z,72.39
2023-06-11T08:24:41.728Z,71.06
2023-06-11T08:29:49.911Z,72.53
2023-06-11T08:34:53.669Z,69.73
2023-06-11T08:39:57.806Z,68.85
2023-06-11T08:45:00.847Z,69.37
2023-06-11T08:50:05.326Z,68.26
2023-06-11T08:55:10.934Z,69.75
2023-06-11T09:00:15.893Z,71.14
2023-06-11T09:05:18.914Z,69.71
2023-06-11T09:10:24.080Z,68.01
2023-06-11T09:15:33.273Z,69.80
2023-06-11T09:20:36.936Z,69.47
2023-06-11T09:25:42.662Z,66.79
2023-06-11T09:30:54.960Z,66.26
2023-06-11T09:35:57.782Z,65.97
2023-06-11T09:41:06.157Z,67.23
2023-06-11T09:46:10.118Z,66.62
2023-06-11T09:51:24.848Z,66.25
2023-06-11T09:56:30.080Z,65.94
2023-06-11T10:01:34.575Z,67.67
2023-06-11T10:06:42.107Z,63.42
2023-06-11T10:11:47.689Z,64.08
2023-06-11T10:16:52.025Z,64.43
2023-06-11T10:22:03.370Z,66.92
2023-06-11T10:27:09.859Z,65.11
2023-06-11T10:32:17.369Z,62.77
2023-06-11T10:37:30.410Z,64.41
2023-06-11T10:42:39.359Z,63.19
2023-06-11T10:47:44.427Z,61.46
2023-06-11T10:52:51.598Z,62.85
2023-06-11T10:57:56.284Z,63.37
2023-06-11T11:03:00.729Z,65.72
2023-06-11T11:08:03.875Z,69.39
2023-06-11T11:13:07.954Z,60.23
2023-06-11T11:18:10.827Z,61.18
2023-06-11T11:23:13.738Z,55.94
2023-06-11T11:28:18.913Z,55.98
2023-06-11T11:33:22.151Z,50.68
2023-06-11T11:38:25.121Z,50.80
2023-06-11T11:43:40.319Z,50.89
2023-06-11T11:48:44.327Z,52.48
2023-06-11T11:53:48.283Z,50.10
2023-06-11T11:58:53.707Z,50.65
2023-06-11T12:04:02.029Z,50.17
2023-06-11T12:09:06.617Z,48.35
2023-06-11T12:14:11.032Z,48.29
2023-06-11T12:19:23.212Z,46.41
2023-06-11T12:24:27.978Z,45.56
2023-06-11T12:29:32.621Z,45.60
2023-06-11T12:34:35.372Z,48.41
2023-06-11T12:39:38.352Z,42.53
2023-06-11T12:44:43.482Z,44.10
2023-06-11T12:49:46.621Z,43.97
2023-06-11T12:54:49.415Z,46.39
2023-06-11T12:59:53.524Z,45.18
2023-06-11T13:04:58.483Z,47.32
2023-06-11T13:10:01.756Z,46.43
2023-06-11T13:15:08.468Z,45.99
2023-06-11T13:20:12.432Z,45.20
2023-06-11T13:25:16.758Z,47.59
2023-06-11T13:30:21.376Z,46.38
2023-06-11T13:35:24.303Z,42.38
2023-06-11T13:40:27.157Z,44.77
2023-06-11T13:45:31.354Z,39.44
2023-06-11T13:50:34.594Z,38.69
2023-06-11T13:55:37.534Z,38.06
2023-06-11T14:00:42.292Z,36.34
2023-06-11T14:05:45.143Z,33.42
2023-06-11T14:10:54.008Z,33.08
2023-06-11T14:15:58.803Z,31.56
2023-06-11T14:21:01.687Z,30.09
2023-06-11T14:26:04.448Z,28.69
2023-06-11T14:31:08.492Z,30.33
2023-06-11T14:36:11.515Z,32.72
2023-06-11T14:41:14.460Z,32.06
2023-06-11T14:46:18.952Z,38.62
2023-06-11T14:51:24.082Z,37.66
2023-06-11T14:56:28.186Z,36.85
2023-06-11T15:01:32.640Z,36.44
2023-06-11T15:06:35.520Z,38.17
2023-06-11T15:11:38.406Z,37.67
2023-06-11T15:16:45.363Z,39.20
2023-06-11T15:21:48.363Z,38.40
2023-06-11T15:26:51.137Z,39.10
2023-06-11T15:31:57.970Z,38.60
2023-06-11T15:37:01.144Z,39.63
2023-06-11T15:42:04.308Z,41.07
2023-06-11T15:47:08.656Z,39.04
2023-06-11T15:52:11.355Z,40.13
2023-06-11T15:57:14.024Z,41.97
2023-06-11T16:02:18.290Z,41.51
2023-06-11T16:07:23.947Z,43.14
2023-06-11T16:12:26.636Z,41.94
2023-06-11T16:17:32.207Z,41.99
2023-06-11T16:22:41.153Z,42.17
2023-06-11T16:27:45.550Z,42.78
2023-06-11T16:32:49.591Z,43.32
2023-06-11T16:37:52.327Z,43.94
2023-06-11T16:42:55.207Z,45.97
2023-06-11T16:48:01.429Z,45.90
2023-06-11T16:53:09.802Z,45.19
2023-06-11T16:58:12.646Z,45.04
2023-06-11T17:03:20.054Z,45.27
2023-06-11T17:08:24.945Z,45.77
2023-06-11T17:13:28.102Z,44.62
2023-06-11T17:18:37.223Z,44.62
2023-06-11T17:29:20.032Z,46.98
2023-06-11T17:34:45.874Z,45.97
2023-06-11T17:39:57.183Z,46.37
2023-06-11T17:44:59.995Z,46.19
2023-06-11T17:50:07.452Z,46.09
2023-06-11T17:55:14.538Z,46.76
2023-06-11T18:00:18.738Z,46.54
2023-06-11T18:05:25.217Z,46.71
2023-06-11T18:10:28.189Z,48.00
2023-06-11T18:15:34.557Z,46.72
2023-06-11T18:20:39.635Z,45.93
2023-06-11T18:25:42.335Z,45.20
2023-06-11T18:30:45.476Z,44.47
2023-06-11T18:35:49.704Z,44.74
2023-06-11T18:40:52.613Z,44.87
2023-06-11T18:45:55.956Z,46.88
2023-06-11T21:56:10.488Z,45.92
2023-06-11T22:01:13.184Z,46.25
2023-06-11T22:06:15.966Z,46.03
2023-06-11T22:11:20.375Z,47.23
2023-06-11T22:16:23.864Z,47.91
2023-06-11T22:21:26.855Z,47.60
2023-06-11T22:26:31.412Z,48.42
2023-06-11T22:31:34.731Z,49.15
2023-06-11T22:36:37.611Z,50.86
2023-06-11T22:41:41.875Z,51.31
2023-06-11T22:46:44.571Z,51.78
2023-06-11T22:51:48.101Z,53.99
2023-06-11T22:56:52.848Z,55.43
2023-06-11T23:01:55.801Z,59.42
2023-06-11T23:06:58.986Z,60.46
2023-06-11T23:12:03.217Z,59.82
2023-06-11T23:17:10.441Z,56.72
2023-06-11T23:22:13.379Z,58.45
2023-06-11T23:27:18.488Z,60.54
2023-06-11T23:32:21.281Z,60.37
2023-06-11T23:37:24.077Z,60.80
2023-06-11T23:42:28.072Z,61.90
2023-06-11T23:47:32.482Z,61.33
2023-06-11T23:52:35.293Z,62.05
2023-06-11T23:57:40.341Z,62.01
